createdAt,value
2016-12-29T00:00:38.344Z,1017.58
2016-12-29T00:01:38.372Z,1017.59
2016-12-29T00:02:38.397Z,1017.57
2016-12-29T00:03:38.429Z,1017.61
2016-12-29T00:04:38.451Z,1017.58
2016-12-29T00:05:38.479Z,1017.59
2016-12-29T00:06:38.508Z,1017.56
2016-12-29T00:07:38.533Z,1017.57
2016-12-29T00:08:38.561Z,1017.57
2016-12-29T00:09:38.590Z,1017.51
2016-12-29T00:10:38.615Z,1017.52
2016-12-29T00:11:38.643Z,1017.56
2016-12-29T00:12:38.669Z,1017.54
2016-12-29T00:13:38.698Z,1017.52
2016-12-29T00:14:38.726Z,1017.47
2016-12-29T00:15:38.746Z,1017.53
2016-12-29T00:16:38.779Z,1017.53
2016-12-29T00:17:38.804Z,1017.52
2016-12-29T00:18:38.833Z,1017.48
2016-12-29T00:19:38.858Z,1017.49
2016-12-29T00:20:38.887Z,1017.48
2016-12-29T00:21:38.915Z,1017.48
2016-12-29T00:22:38.940Z,1017.45
2016-12-29T00:23:38.969Z,1017.41
2016-12-29T00:24:39.005Z,1017.46
2016-12-29T00:25:39.018Z,1017.48
2016-12-29T00:26:39.051Z,1017.45
2016-12-29T00:27:39.075Z,1017.45
2016-12-29T00:28:39.104Z,1017.43
2016-12-29T00:29:39.130Z,1017.45
2016-12-29T00:30:39.154Z,1017.4
2016-12-29T00:31:39.187Z,1017.42
2016-12-29T00:32:39.212Z,1017.48
2016-12-29T00:33:39.241Z,1017.44
2016-12-29T00:34:39.265Z,1017.42
2016-12-29T00:35:39.293Z,1017.4
2016-12-29T00:36:39.322Z,1017.45
2016-12-29T00:37:39.347Z,1017.43
2016-12-29T00:38:39.376Z,1017.42
2016-12-29T00:39:39.400Z,1017.41
2016-12-29T00:40:39.430Z,1017.41
2016-12-29T00:41:39.454Z,1017.4
2016-12-29T00:42:39.483Z,1017.43
2016-12-29T00:43:39.512Z,1017.4
2016-12-29T00:44:39.537Z,1017.41
2016-12-29T00:45:39.565Z,1017.4
2016-12-29T00:46:39.594Z,1017.36
2016-12-29T00:47:39.619Z,1017.41
2016-12-29T00:48:39.647Z,1017.41
2016-12-29T00:49:39.672Z,1017.37
2016-12-29T00:50:39.701Z,1017.4
2016-12-29T00:51:39.729Z,1017.42
2016-12-29T00:52:39.755Z,1017.42
2016-12-29T00:53:39.783Z,1017.41
2016-12-29T00:54:39.808Z,1017.43
2016-12-29T00:55:39.837Z,1017.41
2016-12-29T00:56:39.861Z,1017.37
2016-12-29T00:57:39.890Z,1017.37
2016-12-29T00:58:39.922Z,1017.41
2016-12-29T00:59:39.944Z,1017.38
2016-12-29T01:00:39.972Z,1017.36
2016-12-29T01:01:39.996Z,1017.35
2016-12-29T01:02:40.028Z,1017.34
2016-12-29T01:03:40.050Z,1017.34
2016-12-29T01:04:40.079Z,1017.35
2016-12-29T01:05:40.108Z,1017.33
2016-12-29T01:06:40.129Z,1017.36
2016-12-29T01:07:40.161Z,1017.34
2016-12-29T01:08:40.186Z,1017.35
2016-12-29T01:09:40.215Z,1017.35
2016-12-29T01:10:40.240Z,1017.37
2016-12-29T01:11:40.269Z,1017.37
2016-12-29T01:12:40.297Z,1017.35
2016-12-29T01:13:40.326Z,1017.32
2016-12-29T01:14:40.350Z,1017.37
2016-12-29T01:15:40.374Z,1017.35
2016-12-29T01:16:40.404Z,1017.37
2016-12-29T01:17:40.427Z,1017.37
2016-12-29T01:18:40.458Z,1017.35
2016-12-29T01:19:40.486Z,1017.33
2016-12-29T01:20:40.512Z,1017.37
2016-12-29T01:21:40.540Z,1017.37
2016-12-29T01:22:40.565Z,1017.37
2016-12-29T01:23:40.594Z,1017.34
2016-12-29T01:24:40.624Z,1017.35
2016-12-29T01:25:40.647Z,1017.33
2016-12-29T01:26:40.676Z,1017.35
2016-12-29T01:27:40.701Z,1017.36
2016-12-29T01:28:40.729Z,1017.35
2016-12-29T01:29:40.755Z,1017.33
2016-12-29T01:30:40.783Z,1017.35
2016-12-29T01:31:40.811Z,1017.36
2016-12-29T01:32:40.832Z,1017.3
2016-12-29T01:33:40.866Z,1017.25
2016-12-29T01:34:40.890Z,1017.33
2016-12-29T01:35:40.915Z,1017.32
2016-12-29T01:36:40.944Z,1017.32
2016-12-29T01:37:40.973Z,1017.32
2016-12-29T01:38:40.997Z,1017.33
2016-12-29T01:39:41.026Z,1017.33
2016-12-29T01:40:41.050Z,1017.35
2016-12-29T01:41:41.078Z,1017.28
2016-12-29T01:42:41.107Z,1017.33
2016-12-29T01:43:41.132Z,1017.27
2016-12-29T01:44:41.166Z,1017.22
2016-12-29T01:45:41.187Z,1017.25
2016-12-29T01:46:41.213Z,1017.2
2016-12-29T01:47:41.240Z,1017.14
2016-12-29T01:48:41.269Z,1017.2
2016-12-29T01:49:41.298Z,1017.16
2016-12-29T01:50:41.322Z,1017.17
2016-12-29T01:51:41.351Z,1017.16
2016-12-29T01:52:41.375Z,1017.15
2016-12-29T01:53:41.404Z,1017.11
2016-12-29T01:54:41.428Z,1017.14
2016-12-29T01:55:41.457Z,1017.11
2016-12-29T01:56:41.487Z,1017.11
2016-12-29T01:57:41.511Z,1017.13
2016-12-29T01:58:41.539Z,1017.1
2016-12-29T01:59:41.564Z,1017.08
2016-12-29T02:00:41.594Z,1017.06
2016-12-29T02:01:41.618Z,1017.07
2016-12-29T02:02:41.651Z,1017.1
2016-12-29T02:03:41.676Z,1017.07
2016-12-29T02:04:41.700Z,1017.07
2016-12-29T02:05:41.729Z,1017.07
2016-12-29T02:06:41.753Z,1017.05
2016-12-29T02:07:41.782Z,1017.03
2016-12-29T02:08:41.807Z,1016.98
2016-12-29T02:09:41.836Z,1016.97
2016-12-29T02:10:41.861Z,1016.96
2016-12-29T02:11:41.891Z,1016.93
2016-12-29T02:12:41.914Z,1016.94
2016-12-29T02:13:41.939Z,1016.95
2016-12-29T02:14:41.972Z,1016.89
2016-12-29T02:15:41.993Z,1016.92
2016-12-29T02:16:42.025Z,1016.91
2016-12-29T02:17:42.050Z,1016.91
2016-12-29T02:18:42.078Z,1016.88
2016-12-29T02:19:42.107Z,1016.91
2016-12-29T02:20:42.132Z,1016.85
2016-12-29T02:21:42.159Z,1016.85
2016-12-29T02:22:42.182Z,1016.86
2016-12-29T02:23:42.214Z,1016.84
2016-12-29T02:24:42.239Z,1016.77
2016-12-29T02:25:42.268Z,1016.78
2016-12-29T02:26:42.297Z,1016.77
2016-12-29T02:27:42.326Z,1016.76
2016-12-29T02:28:42.351Z,1016.74
2016-12-29T02:29:42.376Z,1016.67
2016-12-29T02:30:42.404Z,1016.71
2016-12-29T02:31:42.429Z,1016.62
2016-12-29T02:32:42.458Z,1016.64
2016-12-29T02:33:42.486Z,1016.61
2016-12-29T02:34:42.507Z,1016.58
2016-12-29T02:35:42.539Z,1016.57
2016-12-29T02:36:42.564Z,1016.47
2016-12-29T02:37:42.593Z,1016.51
2016-12-29T02:38:42.621Z,1016.47
2016-12-29T02:39:42.643Z,1016.45
2016-12-29T02:40:42.672Z,1016.47
2016-12-29T02:41:42.700Z,1016.47
2016-12-29T02:42:42.725Z,1016.46
2016-12-29T02:43:42.754Z,1016.46
2016-12-29T02:44:42.784Z,1016.47
2016-12-29T02:45:42.807Z,1016.5
2016-12-29T02:46:42.837Z,1016.5
2016-12-29T02:47:42.866Z,1016.43
2016-12-29T02:48:42.888Z,1016.43
2016-12-29T02:49:42.915Z,1016.42
2016-12-29T02:50:42.943Z,1016.41
2016-12-29T02:51:42.969Z,1016.41
2016-12-29T02:52:42.997Z,1016.39
2016-12-29T02:53:43.021Z,1016.38
2016-12-29T02:54:43.050Z,1016.43
2016-12-29T02:55:43.079Z,1016.43
2016-12-29T02:56:43.104Z,1016.46
2016-12-29T02:57:43.132Z,1016.41
2016-12-29T02:58:43.157Z,1016.4
2016-12-29T02:59:43.186Z,1016.39
2016-12-29T03:00:43.211Z,1016.37
2016-12-29T03:01:43.240Z,1016.37
2016-12-29T03:02:43.268Z,1016.33
2016-12-29T03:03:43.293Z,1016.39
2016-12-29T03:04:43.322Z,1016.36
2016-12-29T03:05:43.342Z,1016.4
2016-12-29T03:06:43.376Z,1016.38
2016-12-29T03:07:43.400Z,1016.41
2016-12-29T03:08:43.430Z,1016.4
2016-12-29T03:09:43.457Z,1016.41
2016-12-29T03:10:43.478Z,1016.34
2016-12-29T03:11:43.508Z,1016.35
2016-12-29T03:12:43.532Z,1016.37
2016-12-29T03:13:43.565Z,1016.35
2016-12-29T03:14:43.591Z,1016.34
2016-12-29T03:15:43.619Z,1016.35
2016-12-29T03:16:43.643Z,1016.34
2016-12-29T03:17:43.675Z,1016.31
2016-12-29T03:18:43.697Z,1016.28
2016-12-29T03:19:43.725Z,1016.26
2016-12-29T03:20:43.751Z,1016.27
2016-12-29T03:21:43.779Z,1016.3
2016-12-29T03:22:43.803Z,1016.33
2016-12-29T03:23:43.832Z,1016.33
2016-12-29T03:24:43.861Z,1016.28
2016-12-29T03:25:43.886Z,1016.28
2016-12-29T03:26:43.914Z,1016.31
2016-12-29T03:27:43.939Z,1016.31
2016-12-29T03:28:43.968Z,1016.29
2016-12-29T03:29:43.993Z,1016.28
2016-12-29T03:30:44.023Z,1016.31
2016-12-29T03:31:44.048Z,1016.32
2016-12-29T03:32:44.075Z,1016.32
2016-12-29T03:33:44.100Z,1016.28
2016-12-29T03:34:44.129Z,1016.27
2016-12-29T03:35:44.156Z,1016.22
2016-12-29T03:36:44.178Z,1016.27
2016-12-29T03:37:44.211Z,1016.26
2016-12-29T03:38:44.235Z,1016.28
2016-12-29T03:39:44.264Z,1016.3
2016-12-29T03:40:44.289Z,1016.28
2016-12-29T03:41:44.318Z,1016.29
2016-12-29T03:42:44.347Z,1016.32
2016-12-29T03:43:44.371Z,1016.27
2016-12-29T03:44:44.396Z,1016.24
2016-12-29T03:45:44.425Z,1016.26
2016-12-29T03:46:44.449Z,1016.22
2016-12-29T03:47:44.479Z,1016.23
2016-12-29T03:48:44.498Z,1016.23
2016-12-29T03:49:44.531Z,1016.25
2016-12-29T03:50:44.561Z,1016.25
2016-12-29T03:51:44.585Z,1016.27
2016-12-29T03:52:44.614Z,1016.25
2016-12-29T03:53:44.639Z,1016.23
2016-12-29T03:54:44.668Z,1016.2
2016-12-29T03:55:44.696Z,1016.17
2016-12-29T03:56:44.721Z,1016.2
2016-12-29T03:57:44.750Z,1016.25
2016-12-29T03:58:44.776Z,1016.19
2016-12-29T03:59:44.804Z,1016.15
2016-12-29T04:00:44.828Z,1016.16
2016-12-29T04:01:44.857Z,1016.12
2016-12-29T04:02:44.881Z,1016.16
2016-12-29T04:03:44.910Z,1016.12
2016-12-29T04:04:44.931Z,1016.13
2016-12-29T04:05:44.964Z,1016.13
2016-12-29T04:06:44.989Z,1016.11
2016-12-29T04:07:45.013Z,1016.14
2016-12-29T04:08:45.046Z,1016.13
2016-12-29T04:09:45.067Z,1016.09
2016-12-29T04:10:45.100Z,1016.11
2016-12-29T04:11:45.125Z,1016.1
2016-12-29T04:12:45.153Z,1016.09
2016-12-29T04:13:45.178Z,1016.09
2016-12-29T04:14:45.207Z,1016.03
2016-12-29T04:15:45.231Z,1016.05
2016-12-29T04:16:45.260Z,1015.97
2016-12-29T04:17:45.285Z,1015.94
2016-12-29T04:18:45.314Z,1015.96
2016-12-29T04:19:45.342Z,1015.94
2016-12-29T04:20:45.367Z,1015.93
2016-12-29T04:21:45.396Z,1015.95
2016-12-29T04:22:45.422Z,1015.95
2016-12-29T04:23:45.449Z,1015.97
2016-12-29T04:24:45.476Z,1015.96
2016-12-29T04:25:45.503Z,1015.9
2016-12-29T04:26:45.528Z,1015.88
2016-12-29T04:27:45.556Z,1015.89
2016-12-29T04:28:45.577Z,1015.89
2016-12-29T04:29:45.610Z,1015.86
2016-12-29T04:30:45.634Z,1015.9
2016-12-29T04:31:45.663Z,1015.9
2016-12-29T04:32:45.688Z,1015.88
2016-12-29T04:33:45.713Z,1015.92
2016-12-29T04:34:45.746Z,1015.87
2016-12-29T04:35:45.771Z,1015.92
2016-12-29T04:36:45.799Z,1015.9
2016-12-29T04:37:45.824Z,1015.89
2016-12-29T04:38:45.849Z,1015.91
2016-12-29T04:39:45.873Z,1015.86
2016-12-29T04:40:45.906Z,1015.86
2016-12-29T04:41:45.931Z,1015.87
2016-12-29T04:42:45.959Z,1015.87
2016-12-29T04:43:45.987Z,1015.82
2016-12-29T04:44:46.009Z,1015.89
2016-12-29T04:45:46.037Z,1015.84
2016-12-29T04:46:46.067Z,1015.84
2016-12-29T04:47:46.089Z,1015.8
2016-12-29T04:48:46.120Z,1015.82
2016-12-29T04:49:46.142Z,1015.85
2016-12-29T04:50:46.174Z,1015.86
2016-12-29T04:51:46.203Z,1015.86
2016-12-29T04:52:46.228Z,1015.84
2016-12-29T04:53:46.252Z,1015.83
2016-12-29T04:54:46.281Z,1015.82
2016-12-29T04:55:46.309Z,1015.82
2016-12-29T04:56:46.334Z,1015.83
2016-12-29T04:57:46.363Z,1015.84
2016-12-29T04:58:46.382Z,1015.84
2016-12-29T04:59:46.417Z,1015.85
2016-12-29T05:00:46.437Z,1015.82
2016-12-29T05:01:46.470Z,1015.79
2016-12-29T05:02:46.495Z,1015.82
2016-12-29T05:03:46.523Z,1015.83
2016-12-29T05:04:46.549Z,1015.83
2016-12-29T05:05:46.579Z,1015.82
2016-12-29T05:06:46.608Z,1015.84
2016-12-29T05:07:46.631Z,1015.83
2016-12-29T05:08:46.655Z,1015.84
2016-12-29T05:09:46.680Z,1015.81
2016-12-29T05:10:46.712Z,1015.8
2016-12-29T05:11:46.739Z,1015.81
2016-12-29T05:12:46.766Z,1015.83
2016-12-29T05:13:46.791Z,1015.8
2016-12-29T05:14:46.811Z,1015.82
2016-12-29T05:15:46.845Z,1015.85
2016-12-29T05:16:46.873Z,1015.85
2016-12-29T05:17:46.898Z,1015.87
2016-12-29T05:18:46.927Z,1015.85
2016-12-29T05:19:46.952Z,1015.8
2016-12-29T05:20:46.980Z,1015.79
2016-12-29T05:21:47.005Z,1015.81
2016-12-29T05:22:47.033Z,1015.8
2016-12-29T05:23:47.058Z,1015.74
2016-12-29T05:24:47.087Z,1015.74
2016-12-29T05:25:47.116Z,1015.73
2016-12-29T05:26:47.141Z,1015.72
2016-12-29T05:27:47.170Z,1015.74
2016-12-29T05:28:47.193Z,1015.73
2016-12-29T05:29:47.223Z,1015.68
2016-12-29T05:30:47.249Z,1015.66
2016-12-29T05:31:47.277Z,1015.65
2016-12-29T05:32:47.306Z,1015.65
2016-12-29T05:33:47.330Z,1015.68
2016-12-29T05:34:47.353Z,1015.67
2016-12-29T05:35:47.380Z,1015.67
2016-12-29T05:36:47.412Z,1015.66
2016-12-29T05:37:47.438Z,1015.63
2016-12-29T05:38:47.465Z,1015.64
2016-12-29T05:39:47.490Z,1015.65
2016-12-29T05:40:47.515Z,1015.66
2016-12-29T05:41:47.544Z,1015.63
2016-12-29T05:42:47.571Z,1015.6
2016-12-29T05:43:47.597Z,1015.59
2016-12-29T05:44:47.626Z,1015.59
2016-12-29T05:45:47.651Z,1015.59
2016-12-29T05:46:47.680Z,1015.6
2016-12-29T05:47:47.704Z,1015.63
2016-12-29T05:48:47.733Z,1015.64
2016-12-29T05:49:47.758Z,1015.65
2016-12-29T05:50:47.787Z,1015.66
2016-12-29T05:51:47.816Z,1015.63
2016-12-29T05:52:47.840Z,1015.67
2016-12-29T05:53:47.865Z,1015.64
2016-12-29T05:54:47.894Z,1015.61
2016-12-29T05:55:47.920Z,1015.63
2016-12-29T05:56:47.945Z,1015.6
2016-12-29T05:57:47.976Z,1015.62
2016-12-29T05:58:48.001Z,1015.64
2016-12-29T05:59:48.030Z,1015.63
2016-12-29T06:00:48.054Z,1015.66
2016-12-29T06:01:48.083Z,1015.62
2016-12-29T06:02:48.108Z,1015.61
2016-12-29T06:03:48.136Z,1015.59
2016-12-29T06:04:48.161Z,1015.56
2016-12-29T06:05:48.189Z,1015.59
2016-12-29T06:06:48.214Z,1015.61
2016-12-29T06:07:48.244Z,1015.62
2016-12-29T06:08:48.268Z,1015.61
2016-12-29T06:09:48.326Z,1015.6
2016-12-29T06:10:48.322Z,1015.6
2016-12-29T06:11:48.351Z,1015.58
2016-12-29T06:12:48.375Z,1015.63
2016-12-29T06:13:48.404Z,1015.59
2016-12-29T06:14:48.428Z,1015.62
2016-12-29T06:15:48.457Z,1015.61
2016-12-29T06:16:48.486Z,1015.62
2016-12-29T06:17:48.511Z,1015.63
2016-12-29T06:18:48.540Z,1015.61
2016-12-29T06:19:48.564Z,1015.59
2016-12-29T06:20:48.593Z,1015.57
2016-12-29T06:21:48.618Z,1015.58
2016-12-29T06:22:48.642Z,1015.55
2016-12-29T06:23:48.672Z,1015.57
2016-12-29T06:24:48.701Z,1015.56
2016-12-29T06:25:48.726Z,1015.59
2016-12-29T06:26:48.753Z,1015.59
2016-12-29T06:27:48.774Z,1015.57
2016-12-29T06:28:48.807Z,1015.55
2016-12-29T06:29:48.832Z,1015.54
2016-12-29T06:30:48.861Z,1015.59
2016-12-29T06:31:48.885Z,1015.6
2016-12-29T06:32:48.914Z,1015.65
2016-12-29T06:33:48.939Z,1015.61
2016-12-29T06:34:48.968Z,1015.6
2016-12-29T06:35:48.993Z,1015.63
2016-12-29T06:36:49.019Z,1015.67
2016-12-29T06:37:49.042Z,1015.62
2016-12-29T06:38:49.075Z,1015.66
2016-12-29T06:39:49.095Z,1015.63
2016-12-29T06:40:49.127Z,1015.59
2016-12-29T06:41:49.157Z,1015.58
2016-12-29T06:42:49.182Z,1015.53
2016-12-29T06:43:49.213Z,1015.58
2016-12-29T06:44:49.235Z,1015.53
2016-12-29T06:45:49.264Z,1015.52
2016-12-29T06:46:49.288Z,1015.52
2016-12-29T06:47:49.317Z,1015.49
2016-12-29T06:48:49.338Z,1015.5
2016-12-29T06:49:49.372Z,1015.47
2016-12-29T06:50:49.396Z,1015.5
2016-12-29T06:51:49.424Z,1015.49
2016-12-29T06:52:49.449Z,1015.47
2016-12-29T06:53:49.479Z,1015.47
2016-12-29T06:54:49.503Z,1015.44
2016-12-29T06:55:49.531Z,1015.47
2016-12-29T06:56:49.556Z,1015.41
2016-12-29T06:57:49.585Z,1015.5
2016-12-29T06:58:49.610Z,1015.48
2016-12-29T06:59:49.639Z,1015.49
2016-12-29T07:00:49.667Z,1015.48
2016-12-29T07:01:49.692Z,1015.49
2016-12-29T07:02:49.717Z,1015.54
2016-12-29T07:03:49.746Z,1015.47
2016-12-29T07:04:49.775Z,1015.52
2016-12-29T07:05:49.799Z,1015.52
2016-12-29T07:06:49.828Z,1015.55
2016-12-29T07:07:49.853Z,1015.56
2016-12-29T07:08:49.882Z,1015.57
2016-12-29T07:09:49.906Z,1015.55
2016-12-29T07:10:49.935Z,1015.59
2016-12-29T07:11:49.964Z,1015.55
2016-12-29T07:12:49.988Z,1015.56
2016-12-29T07:13:50.012Z,1015.56
2016-12-29T07:14:50.037Z,1015.59
2016-12-29T07:15:50.066Z,1015.53
2016-12-29T07:16:50.098Z,1015.56
2016-12-29T07:17:50.124Z,1015.57
2016-12-29T07:18:50.148Z,1015.52
2016-12-29T07:19:50.169Z,1015.61
2016-12-29T07:20:50.202Z,1015.53
2016-12-29T07:21:50.233Z,1015.56
2016-12-29T07:22:50.255Z,1015.61
2016-12-29T07:23:50.285Z,1015.6
2016-12-29T07:24:50.313Z,1015.61
2016-12-29T07:25:50.338Z,1015.62
2016-12-29T07:26:50.367Z,1015.64
2016-12-29T07:27:50.392Z,1015.62
2016-12-29T07:28:50.421Z,1015.61
2016-12-29T07:29:50.445Z,1015.62
2016-12-29T07:30:50.470Z,1015.61
2016-12-29T07:31:50.498Z,1015.62
2016-12-29T07:32:50.530Z,1015.61
2016-12-29T07:33:50.552Z,1015.66
2016-12-29T07:34:50.577Z,1015.69
2016-12-29T07:35:50.605Z,1015.63
2016-12-29T07:36:50.634Z,1015.66
2016-12-29T07:37:50.662Z,1015.63
2016-12-29T07:38:50.684Z,1015.64
2016-12-29T07:39:50.713Z,1015.66
2016-12-29T07:40:50.737Z,1015.64
2016-12-29T07:41:50.762Z,1015.65
2016-12-29T07:42:50.795Z,1015.66
2016-12-29T07:43:50.819Z,1015.71
2016-12-29T07:44:50.848Z,1015.62
2016-12-29T07:45:50.869Z,1015.62
2016-12-29T07:46:50.902Z,1015.62
2016-12-29T07:47:50.926Z,1015.64
2016-12-29T07:48:50.954Z,1015.6
2016-12-29T07:49:50.980Z,1015.62
2016-12-29T07:50:51.005Z,1015.63
2016-12-29T07:51:51.036Z,1015.6
2016-12-29T07:52:51.062Z,1015.63
2016-12-29T07:53:51.086Z,1015.68
2016-12-29T07:54:51.116Z,1015.68
2016-12-29T07:55:51.146Z,1015.63
2016-12-29T07:56:51.169Z,1015.65
2016-12-29T07:57:51.198Z,1015.68
2016-12-29T07:58:51.223Z,1015.66
2016-12-29T07:59:51.247Z,1015.68
2016-12-29T08:00:51.276Z,1015.71
2016-12-29T08:01:51.305Z,1015.65
2016-12-29T08:02:51.330Z,1015.69
2016-12-29T08:03:51.359Z,1015.65
2016-12-29T08:04:51.385Z,1015.64
2016-12-29T08:05:51.412Z,1015.7
2016-12-29T08:06:51.441Z,1015.66
2016-12-29T08:07:51.463Z,1015.66
2016-12-29T08:08:51.490Z,1015.72
2016-12-29T08:09:51.519Z,1015.69
2016-12-29T08:10:51.543Z,1015.65
2016-12-29T08:11:51.572Z,1015.66
2016-12-29T08:12:51.601Z,1015.66
2016-12-29T08:13:51.627Z,1015.62
2016-12-29T08:14:51.651Z,1015.65
2016-12-29T08:15:51.678Z,1015.66
2016-12-29T08:16:51.708Z,1015.62
2016-12-29T08:17:51.733Z,1015.66
2016-12-29T08:18:51.763Z,1015.6
2016-12-29T08:19:51.782Z,1015.62
2016-12-29T08:20:51.815Z,1015.63
2016-12-29T08:21:51.840Z,1015.61
2016-12-29T08:22:51.869Z,1015.62
2016-12-29T08:23:51.897Z,1015.65
2016-12-29T08:24:51.923Z,1015.67
2016-12-29T08:25:51.949Z,1015.65
2016-12-29T08:26:51.975Z,1015.66
2016-12-29T08:27:52.004Z,1015.7
2016-12-29T08:28:52.029Z,1015.74
2016-12-29T08:29:52.058Z,1015.73
2016-12-29T08:30:52.083Z,1015.76
2016-12-29T08:31:52.112Z,1015.73
2016-12-29T08:32:52.132Z,1015.75
2016-12-29T08:33:52.165Z,1015.78
2016-12-29T08:34:52.194Z,1015.77
2016-12-29T08:35:52.218Z,1015.8
2016-12-29T08:36:52.247Z,1015.78
2016-12-29T08:37:52.272Z,1015.78
2016-12-29T08:38:52.302Z,1015.76
2016-12-29T08:39:52.330Z,1015.78
2016-12-29T08:40:52.354Z,1015.8
2016-12-29T08:41:52.383Z,1015.8
2016-12-29T08:42:52.407Z,1015.8
2016-12-29T08:43:52.437Z,1015.82
2016-12-29T08:44:52.462Z,1015.8
2016-12-29T08:45:52.490Z,1015.83
2016-12-29T08:46:52.519Z,1015.8
2016-12-29T08:47:52.539Z,1015.83
2016-12-29T08:48:52.572Z,1015.83
2016-12-29T08:49:52.597Z,1015.81
2016-12-29T08:50:52.625Z,1015.85
2016-12-29T08:51:52.653Z,1015.83
2016-12-29T08:52:52.679Z,1015.86
2016-12-29T08:53:52.708Z,1015.87
2016-12-29T08:54:52.733Z,1015.83
2016-12-29T08:55:52.762Z,1015.9
2016-12-29T08:56:52.785Z,1015.89
2016-12-29T08:57:52.815Z,1015.9
2016-12-29T08:58:52.843Z,1015.91
2016-12-29T08:59:52.868Z,1015.89
2016-12-29T09:00:52.897Z,1015.89
2016-12-29T09:01:52.922Z,1015.91
2016-12-29T09:02:52.951Z,1015.89
2016-12-29T09:03:52.979Z,1015.89
2016-12-29T09:04:53.007Z,1015.89
2016-12-29T09:05:53.034Z,1015.92
2016-12-29T09:06:53.064Z,1015.9
2016-12-29T09:07:53.086Z,1015.87
2016-12-29T09:08:53.119Z,1015.93
2016-12-29T09:09:53.144Z,1015.92
2016-12-29T09:10:53.169Z,1015.91
2016-12-29T09:11:53.197Z,1015.95
2016-12-29T09:12:53.222Z,1015.91
2016-12-29T09:13:53.254Z,1015.9
2016-12-29T09:14:53.280Z,1015.9
2016-12-29T09:15:53.304Z,1015.86
2016-12-29T09:16:53.333Z,1015.88
2016-12-29T09:17:53.361Z,1015.83
2016-12-29T09:18:53.382Z,1015.81
2016-12-29T09:19:53.415Z,1015.85
2016-12-29T09:20:53.441Z,1015.84
2016-12-29T09:21:53.469Z,1015.87
2016-12-29T09:22:53.498Z,1015.92
2016-12-29T09:23:53.523Z,1015.92
2016-12-29T09:24:53.552Z,1015.85
2016-12-29T09:25:53.576Z,1015.9
2016-12-29T09:26:53.605Z,1015.84
2016-12-29T09:27:53.634Z,1015.87
2016-12-29T09:28:53.659Z,1015.85
2016-12-29T09:29:53.687Z,1015.91
2016-12-29T09:30:53.716Z,1015.85
2016-12-29T09:31:53.740Z,1015.83
2016-12-29T09:32:53.769Z,1015.9
2016-12-29T09:33:53.799Z,1015.87
2016-12-29T09:34:53.823Z,1015.88
2016-12-29T09:35:53.851Z,1015.89
2016-12-29T09:36:53.880Z,1015.85
2016-12-29T09:37:53.902Z,1015.85
2016-12-29T09:38:53.930Z,1015.84
2016-12-29T09:39:53.963Z,1015.85
2016-12-29T09:40:53.988Z,1015.85
2016-12-29T09:41:54.015Z,1015.81
2016-12-29T09:42:54.041Z,1015.81
2016-12-29T09:43:54.065Z,1015.79
2016-12-29T09:44:54.098Z,1015.84
2016-12-29T09:45:54.123Z,1015.87
2016-12-29T09:46:54.153Z,1015.8
2016-12-29T09:47:54.176Z,1015.86
2016-12-29T09:48:54.206Z,1015.88
2016-12-29T09:49:54.235Z,1015.9
2016-12-29T09:50:54.263Z,1015.89
2016-12-29T09:51:54.287Z,1015.83
2016-12-29T09:52:54.316Z,1015.86
2016-12-29T09:53:54.341Z,1015.87
2016-12-29T09:54:54.370Z,1015.83
2016-12-29T09:55:54.399Z,1015.86
2016-12-29T09:56:54.423Z,1015.88
2016-12-29T09:57:54.456Z,1015.87
2016-12-29T09:58:54.480Z,1015.85
2016-12-29T09:59:54.506Z,1015.85
2016-12-29T10:00:54.534Z,1015.86
2016-12-29T10:01:54.563Z,1015.87
2016-12-29T10:02:54.588Z,1015.89
2016-12-29T10:03:54.616Z,1015.83
2016-12-29T10:04:54.641Z,1015.91
2016-12-29T10:05:54.670Z,1015.88
2016-12-29T10:06:54.700Z,1015.9
2016-12-29T10:07:54.724Z,1015.85
2016-12-29T10:08:54.752Z,1015.85
2016-12-29T10:09:54.781Z,1015.87
2016-12-29T10:10:54.806Z,1015.91
2016-12-29T10:11:54.834Z,1015.9
2016-12-29T10:12:54.859Z,1015.91
2016-12-29T10:13:54.889Z,1015.89
2016-12-29T10:14:54.916Z,1015.89
2016-12-29T10:15:54.946Z,1015.89
2016-12-29T10:16:54.970Z,1015.95
2016-12-29T10:17:54.999Z,1015.9
2016-12-29T10:18:55.026Z,1015.9
2016-12-29T10:19:55.048Z,1015.93
2016-12-29T10:20:55.082Z,1015.94
2016-12-29T10:21:55.110Z,1015.88
2016-12-29T10:22:55.135Z,1015.93
2016-12-29T10:23:55.163Z,1015.93
2016-12-29T10:24:55.189Z,1015.91
2016-12-29T10:25:55.217Z,1015.86
2016-12-29T10:26:55.246Z,1015.92
2016-12-29T10:27:55.270Z,1015.85
2016-12-29T10:28:55.299Z,1015.86
2016-12-29T10:29:55.324Z,1015.84
2016-12-29T10:30:55.348Z,1015.83
2016-12-29T10:31:55.373Z,1015.81
2016-12-29T10:32:55.401Z,1015.81
2016-12-29T10:33:55.427Z,1015.84
2016-12-29T10:34:55.455Z,1015.86
2016-12-29T10:35:55.483Z,1015.83
2016-12-29T10:36:55.511Z,1015.84
2016-12-29T10:37:55.538Z,1015.87
2016-12-29T10:38:55.564Z,1015.87
2016-12-29T10:39:55.592Z,1015.86
2016-12-29T10:40:55.619Z,1015.83
2016-12-29T10:41:55.648Z,1015.84
2016-12-29T10:42:55.674Z,1015.77
2016-12-29T10:43:55.701Z,1015.79
2016-12-29T10:44:55.729Z,1015.79
2016-12-29T10:45:55.757Z,1015.79
2016-12-29T10:46:55.785Z,1015.78
2016-12-29T10:47:55.812Z,1015.81
2016-12-29T10:48:55.841Z,1015.82
2016-12-29T10:49:55.869Z,1015.83
2016-12-29T10:50:55.896Z,1015.78
2016-12-29T10:51:55.923Z,1015.76
2016-12-29T10:52:55.952Z,1015.82
2016-12-29T10:53:55.979Z,1015.85
2016-12-29T10:54:56.029Z,1015.79
2016-12-29T10:55:56.033Z,1015.79
2016-12-29T10:56:56.059Z,1015.78
2016-12-29T10:57:56.088Z,1015.72
2016-12-29T10:58:56.117Z,1015.74
2016-12-29T10:59:56.146Z,1015.74
2016-12-29T11:00:56.172Z,1015.74
2016-12-29T11:01:56.199Z,1015.72
2016-12-29T11:02:56.227Z,1015.71
2016-12-29T11:03:56.254Z,1015.69
2016-12-29T11:04:56.281Z,1015.69
2016-12-29T11:05:56.314Z,1015.66
2016-12-29T11:06:56.337Z,1015.7
2016-12-29T11:07:56.366Z,1015.65
2016-12-29T11:08:56.394Z,1015.67
2016-12-29T11:09:56.422Z,1015.7
2016-12-29T11:10:56.447Z,1015.7
2016-12-29T11:11:56.476Z,1015.66
2016-12-29T11:12:56.504Z,1015.63
2016-12-29T11:13:56.530Z,1015.68
2016-12-29T11:14:56.559Z,1015.63
2016-12-29T11:15:56.588Z,1015.61
2016-12-29T11:16:56.615Z,1015.56
2016-12-29T11:17:56.640Z,1015.54
2016-12-29T11:18:56.677Z,1015.57
2016-12-29T11:19:56.706Z,1015.55
2016-12-29T11:20:56.731Z,1015.54
2016-12-29T11:21:56.759Z,1015.58
2016-12-29T11:22:56.784Z,1015.55
2016-12-29T11:23:56.817Z,1015.58
2016-12-29T11:24:56.841Z,1015.54
2016-12-29T11:25:56.871Z,1015.53
2016-12-29T11:26:56.899Z,1015.46
2016-12-29T11:27:56.931Z,1015.42
2016-12-29T11:28:56.952Z,1015.49
2016-12-29T11:29:56.983Z,1015.5
2016-12-29T11:30:57.010Z,1015.44
2016-12-29T11:31:57.036Z,1015.48
2016-12-29T11:32:57.064Z,1015.44
2016-12-29T11:33:57.092Z,1015.45
2016-12-29T11:34:57.121Z,1015.44
2016-12-29T11:35:57.145Z,1015.43
2016-12-29T11:36:57.174Z,1015.44
2016-12-29T11:37:57.205Z,1015.45
2016-12-29T11:38:57.226Z,1015.41
2016-12-29T11:39:57.253Z,1015.39
2016-12-29T11:40:57.286Z,1015.37
2016-12-29T11:41:57.311Z,1015.4
2016-12-29T11:42:57.339Z,1015.37
2016-12-29T11:43:57.369Z,1015.4
2016-12-29T11:44:57.388Z,1015.4
2016-12-29T11:45:57.421Z,1015.39
2016-12-29T11:46:57.449Z,1015.36
2016-12-29T11:47:57.474Z,1015.31
2016-12-29T11:48:57.502Z,1015.33
2016-12-29T11:49:57.531Z,1015.3
2016-12-29T11:50:57.560Z,1015.29
2016-12-29T11:51:57.589Z,1015.27
2016-12-29T11:52:57.614Z,1015.27
2016-12-29T11:53:57.642Z,1015.26
2016-12-29T11:54:57.671Z,1015.27
2016-12-29T11:55:57.696Z,1015.17
2016-12-29T11:56:57.720Z,1015.2
2016-12-29T11:57:57.753Z,1015.19
2016-12-29T11:58:57.782Z,1015.16
2016-12-29T11:59:57.803Z,1015.16
2016-12-29T12:00:57.840Z,1015.2
2016-12-29T12:01:57.865Z,1015.17
2016-12-29T12:02:57.887Z,1015.13
2016-12-29T12:03:57.924Z,1015.09
2016-12-29T12:04:57.947Z,1015.07
2016-12-29T12:05:57.971Z,1015.07
2016-12-29T12:06:58.001Z,1015.02
2016-12-29T12:07:58.028Z,1015.02
2016-12-29T12:08:58.061Z,1014.99